createdAt,value
2023-01-20T01:50:26.824Z,99497.82
2023-01-20T01:51:35.491Z,99495.05
2023-01-20T01:52:41.161Z,99500.31
2023-01-20T01:53:46.517Z,99498.59
2023-01-20T01:54:48.710Z,99503.86
2023-01-20T01:55:56.983Z,99494.70
2023-01-20T01:57:00.037Z,99503.39
2023-01-20T01:58:04.351Z,99505.08
2023-01-20T01:59:07.489Z,99505.16
2023-01-20T02:00:10.763Z,99504.16
2023-01-20T02:01:13.935Z,99504.23
2023-01-20T02:02:19.681Z,99506.03
2023-01-20T02:03:21.923Z,99516.56
2023-01-20T02:04:26.055Z,99515.77
2023-01-20T02:05:29.946Z,99513.13
2023-01-20T02:06:35.466Z,99518.39
2023-01-20T02:07:38.845Z,99517.40
2023-01-20T02:08:42.133Z,99512.29
2023-01-20T02:09:44.549Z,99508.97
2023-01-20T02:10:46.576Z,99510.04
2023-01-20T02:11:51.949Z,99515.30
2023-01-20T02:12:54.383Z,99515.38
2023-01-20T02:13:58.091Z,99518.96
2023-01-20T02:15:02.832Z,99522.44
2023-01-20T02:16:15.121Z,99525.14
2023-01-20T02:17:42.240Z,99519.95
2023-01-20T02:18:59.672Z,99521.67
2023-01-20T02:20:34.682Z,99522.59
2023-01-20T02:22:09.573Z,99526.14
2023-01-20T02:23:15.328Z,99518.34
2023-01-20T02:24:40.666Z,99519.19
2023-01-20T02:26:06.349Z,99520.11
2023-01-20T02:27:30.290Z,99525.52
2023-01-20T02:29:09.899Z,99527.53
2023-01-20T02:30:38.195Z,99521.36
2023-01-20T02:31:56.276Z,99518.95
2023-01-20T02:33:02.167Z,99521.05
2023-01-20T02:34:11.020Z,99520.17
2023-01-20T02:36:32.562Z,99523.27
2023-01-20T02:37:53.563Z,99523.02
2023-01-20T02:39:08.265Z,99528.28
2023-01-20T02:40:29.022Z,99528.28
2023-01-20T02:41:57.713Z,99529.23
2023-01-20T02:43:15.324Z,99523.35
2023-01-20T02:44:24.046Z,99528.47
2023-01-20T02:45:48.316Z,99534.72
2023-01-20T02:48:25.694Z,99534.96
2023-01-20T02:49:34.306Z,99538.98
2023-01-20T02:50:48.844Z,99537.42
2023-01-20T02:52:06.709Z,99539.14
2023-01-20T02:53:14.079Z,99541.98
2023-01-20T02:54:18.100Z,99547.53
2023-01-20T02:55:24.269Z,99550.23
2023-01-20T02:56:29.437Z,99556.27
2023-01-20T02:57:38.344Z,99556.27
2023-01-20T02:58:44.069Z,99558.90
2023-01-20T02:59:49.748Z,99553.78
2023-01-20T03:00:55.588Z,99562.47
2023-01-20T03:02:01.419Z,99562.47
2023-01-20T03:03:07.681Z,99557.36
2023-01-20T03:04:13.276Z,99553.78
2023-01-20T03:05:19.079Z,99560.06
2023-01-20T03:06:24.832Z,99553.92
2023-01-20T03:07:30.417Z,99554.80
2023-01-20T03:08:34.402Z,99558.34
2023-01-20T03:09:49.071Z,99555.57
2023-01-20T03:10:54.080Z,99554.73
2023-01-20T03:12:03.340Z,99554.73
2023-01-20T03:13:18.243Z,99551.30
2023-01-20T03:14:21.931Z,99550.50
2023-01-20T03:15:30.320Z,99555.75
2023-01-20T03:16:32.760Z,99552.21
2023-01-20T03:17:36.275Z,99555.75
2023-01-20T03:18:39.011Z,99554.14
2023-01-20T03:19:41.181Z,99552.57
2023-01-20T03:20:43.511Z,99551.87
2023-01-20T03:21:45.917Z,99550.78
2023-01-20T03:22:50.329Z,99555.12
2023-01-20T03:23:55.638Z,99547.09
2023-01-20T03:24:58.644Z,99554.36
2023-01-20T03:26:04.025Z,99559.47
2023-01-20T03:27:07.250Z,99568.13
2023-01-20T03:28:09.823Z,99563.02
2023-01-20T03:29:11.833Z,99574.45
2023-01-20T03:30:15.741Z,99570.83
2023-01-20T03:31:21.569Z,99582.34
2023-01-20T03:32:24.621Z,99580.33
2023-01-20T03:33:28.747Z,99577.70
2023-01-20T03:34:34.932Z,99582.05
2023-01-20T03:35:38.030Z,99584.64
2023-01-20T03:36:43.766Z,99578.66
2023-01-20T03:37:46.097Z,99578.80
2023-01-20T03:38:49.106Z,99577.70
2023-01-20T03:39:53.710Z,99576.75
2023-01-20T03:42:28.276Z,99590.31
2023-01-20T03:43:40.397Z,99600.60
2023-01-20T03:44:57.718Z,99597.97
2023-01-20T03:46:06.404Z,99596.00
2023-01-20T03:47:24.332Z,99590.85
2023-01-20T03:49:55.100Z,99595.44
2023-01-20T03:51:00.869Z,99596.81
2023-01-20T03:53:34.094Z,99606.58
2023-01-20T03:54:46.746Z,99614.05
2023-01-20T03:56:05.193Z,99617.56
2023-01-20T03:57:14.553Z,99611.28
2023-01-20T03:58:20.215Z,99606.09
2023-01-20T03:59:23.386Z,99609.67
2023-01-20T04:00:29.610Z,99605.53
2023-01-20T04:01:38.930Z,99614.05
2023-01-20T04:02:42.361Z,99609.81
2023-01-20T04:03:46.862Z,99605.47
2023-01-20T04:04:50.243Z,99599.30
2023-01-20T04:05:55.006Z,99609.67
2023-01-20T04:06:57.348Z,99614.27
2023-01-20T04:08:03.505Z,99618.62
2023-01-20T04:09:09.238Z,99618.62
2023-01-20T04:10:15.045Z,99608.48
2023-01-20T04:11:18.733Z,99614.83
2023-01-20T04:12:21.106Z,99613.05
2023-01-20T04:13:24.172Z,99609.78
2023-01-20T04:14:26.314Z,99624.69
2023-01-20T04:15:34.756Z,99624.75
2023-01-20T04:16:37.615Z,99626.41
2023-01-20T04:17:39.951Z,99624.55
2023-01-20T04:18:45.698Z,99631.38
2023-01-20T04:19:48.340Z,99623.14
2023-01-20T04:20:54.285Z,99622.86
2023-01-20T04:22:11.929Z,99624.55
2023-01-20T04:23:23.288Z,99614.03
2023-01-20T04:24:36.025Z,99626.54
2023-01-20T04:25:38.347Z,99627.69
2023-01-20T04:26:40.662Z,99633.93
2023-01-20T04:27:42.538Z,99615.80
2023-01-20T04:28:44.553Z,99628.67
2023-01-20T04:29:46.558Z,99627.77
2023-01-20T04:30:49.210Z,99637.33
2023-01-20T04:32:02.799Z,99646.02
2023-01-20T04:33:04.917Z,99649.29
2023-01-20T04:34:09.153Z,99644.31
2023-01-20T04:35:14.579Z,99649.56
2023-01-20T04:36:17.169Z,99646.30
2023-01-20T04:37:19.164Z,99645.56
2023-01-20T04:38:21.038Z,99650.61
2023-01-20T04:39:22.954Z,99648.86
2023-01-20T04:40:25.180Z,99656.81
2023-01-20T04:41:27.189Z,99655.88
2023-01-20T04:42:29.289Z,99658.80
2023-01-20T04:43:31.152Z,99662.55
2023-01-20T04:44:33.028Z,99672.02
2023-01-20T04:45:35.709Z,99666.82
2023-01-20T04:46:37.720Z,99670.49
2023-01-20T04:47:39.689Z,99674.70
2023-01-20T04:48:44.434Z,99685.22
2023-01-20T04:49:46.397Z,99685.22
2023-01-20T04:50:48.370Z,99685.22
2023-01-20T04:51:51.871Z,99679.09
2023-01-20T04:52:55.978Z,99683.50
2023-01-20T04:53:59.183Z,99670.42
2023-01-20T04:55:01.783Z,99678.25
2023-01-20T04:56:06.554Z,99676.66
2023-01-20T04:57:08.467Z,99680.23
2023-01-20T04:58:10.622Z,99667.94
2023-01-20T04:59:12.558Z,99670.56
2023-01-20T05:00:15.560Z,99676.66
2023-01-20T05:01:17.841Z,99675.11
2023-01-20T05:02:20.333Z,99669.14
2023-01-20T05:03:22.332Z,99673.39
2023-01-20T05:04:24.479Z,99674.39
2023-01-20T05:05:28.624Z,99677.73
2023-01-20T05:06:30.650Z,99686.59
2023-01-20T05:07:32.635Z,99686.59
2023-01-20T05:08:34.823Z,99679.52
2023-01-20T05:09:37.425Z,99683.13
2023-01-20T05:10:39.501Z,99680.49
2023-01-20T05:11:44.549Z,99683.13
2023-01-20T05:12:46.812Z,99691.78
2023-01-20T05:13:48.916Z,99689.16
2023-01-20T05:14:51.415Z,99686.66
2023-01-20T05:15:53.671Z,99682.34
2023-01-20T05:16:56.168Z,99686.79
2023-01-20T05:17:58.067Z,99683.45
2023-01-20T05:19:00.909Z,99694.80
2023-01-20T05:20:04.217Z,99695.67
2023-01-20T05:21:06.507Z,99704.20
2023-01-20T05:22:09.119Z,99712.03
2023-01-20T05:23:11.784Z,99707.16
2023-01-20T05:24:13.873Z,99715.98
2023-01-20T05:25:16.627Z,99712.35
2023-01-20T05:26:23.958Z,99696.78
2023-01-20T05:27:26.157Z,99696.78
2023-01-20T05:28:29.338Z,99705.60
2023-01-20T05:29:31.651Z,99710.86
2023-01-20T05:30:34.070Z,99707.09
2023-01-20T05:31:36.430Z,99706.25
2023-01-20T05:32:38.652Z,99713.61
2023-01-20T05:33:40.765Z,99709.85
2023-01-20T05:34:42.865Z,99710.73
2023-01-20T05:35:45.340Z,99707.09
2023-01-20T05:36:52.196Z,99709.79
2023-01-20T05:37:56.296Z,99705.31
2023-01-20T05:38:58.331Z,99709.92
2023-01-20T05:40:00.342Z,99719.78
2023-01-20T05:41:04.825Z,99719.00
2023-01-20T05:42:06.738Z,99730.28
2023-01-20T05:43:08.646Z,99721.63
2023-01-20T05:44:10.612Z,99732.13
2023-01-20T05:45:13.077Z,99727.84
2023-01-20T05:46:16.587Z,99726.94
2023-01-20T05:47:19.368Z,99727.13
2023-01-20T05:48:21.542Z,99728.85
2023-01-20T05:49:23.499Z,99725.22
2023-01-20T05:50:27.507Z,99738.36
2023-01-20T05:51:29.825Z,99727.01
2023-01-20T05:52:32.443Z,99735.80
2023-01-20T05:53:34.518Z,99731.32
2023-01-20T05:54:36.649Z,99733.04
2023-01-20T05:55:39.012Z,99745.27
2023-01-20T05:56:41.312Z,99744.27
2023-01-20T05:57:43.605Z,99735.41
2023-01-20T05:58:45.499Z,99742.52
2023-01-20T05:59:47.411Z,99736.45
2023-01-20T06:00:49.496Z,99747.02
2023-01-20T06:01:51.510Z,99741.70
2023-01-20T06:02:53.841Z,99738.36
2023-01-20T06:03:56.033Z,99738.30
2023-01-20T06:05:00.311Z,99741.58
2023-01-20T06:06:04.505Z,99742.52
2023-01-20T06:07:06.568Z,99739.89
2023-01-20T06:08:08.437Z,99740.08
2023-01-20T06:09:10.428Z,99734.88
2023-01-20T06:10:12.413Z,99741.64
2023-01-20T06:11:14.484Z,99741.05
2023-01-20T06:12:16.370Z,99742.70
2023-01-20T06:13:18.404Z,99749.64
2023-01-20T06:14:20.262Z,99745.52
2023-01-20T06:15:24.925Z,99747.42
2023-01-20T06:16:26.968Z,99751.68
2023-01-20T06:17:29.100Z,99750.90
2023-01-20T06:18:32.713Z,99747.55
2023-01-20T06:19:34.614Z,99747.23
2023-01-20T06:20:36.736Z,99747.30
2023-01-20T06:21:38.595Z,99751.42
2023-01-20T06:22:40.571Z,99753.27
2023-01-20T06:23:42.465Z,99755.91
2023-01-20T06:24:44.941Z,99757.52
2023-01-20T06:25:46.869Z,99763.78
2023-01-20T06:26:52.196Z,99757.52
2023-01-20T06:27:54.127Z,99765.34
2023-01-20T06:28:59.333Z,99764.63
2023-01-20T06:30:01.247Z,99763.72
2023-01-20T06:31:06.324Z,99772.56
2023-01-20T06:32:08.303Z,99772.44
2023-01-20T06:33:10.174Z,99780.98
2023-01-20T06:34:12.604Z,99775.73
2023-01-20T06:35:15.404Z,99779.42
2023-01-20T06:36:17.834Z,99777.70
2023-01-20T06:37:20.659Z,99779.67
2023-01-20T06:38:25.688Z,99779.61
2023-01-20T06:39:27.830Z,99782.17
2023-01-20T06:40:29.923Z,99783.08
2023-01-20T06:41:32.053Z,99788.27
2023-01-20T06:42:33.912Z,99795.18
2023-01-20T06:43:36.632Z,99796.75
2023-01-20T06:44:38.520Z,99791.49
2023-01-20T06:45:40.388Z,99780.92
2023-01-20T06:46:42.436Z,99782.83
2023-01-20T06:47:49.511Z,99781.92
2023-01-20T06:48:51.623Z,99781.98
2023-01-20T06:49:53.499Z,99788.48
2023-01-20T06:51:09.503Z,99787.83
2023-01-20T06:52:11.615Z,99788.36
2023-01-20T06:53:13.562Z,99785.73
2023-01-20T06:54:16.170Z,99794.40
2023-01-20T06:55:18.220Z,99795.86
2023-01-20T06:56:20.907Z,99800.11
2023-01-20T06:57:23.021Z,99796.52
2023-01-20T06:58:26.806Z,99798.36
2023-01-20T06:59:28.725Z,99800.73
2023-01-20T07:00:30.948Z,99798.17
2023-01-20T07:01:33.078Z,99799.08
2023-01-20T07:02:35.321Z,99795.48
2023-01-20T07:03:37.692Z,99792.63
2023-01-20T07:04:39.680Z,99798.11
2023-01-20T07:05:42.360Z,99804.27
2023-01-20T07:06:44.484Z,99809.27
2023-01-20T07:07:46.371Z,99801.52
2023-01-20T07:08:48.398Z,99818.06
2023-01-20T07:09:55.323Z,99819.92
2023-01-20T07:10:57.434Z,99818.84
2023-01-20T07:11:59.295Z,99823.20
2023-01-20T07:13:01.187Z,99822.00
2023-01-20T07:14:04.759Z,99823.85
2023-01-20T07:15:07.751Z,99821.09
2023-01-20T07:16:13.735Z,99807.81
2023-01-20T07:17:15.218Z,99806.78
2023-01-20T07:18:17.195Z,99809.47
2023-01-20T07:19:19.210Z,99815.96
2023-01-20T07:20:22.492Z,99825.50
2023-01-20T07:21:26.515Z,99819.38
2023-01-20T07:22:28.844Z,99815.70
2023-01-20T07:23:31.543Z,99810.31
2023-01-20T07:24:33.466Z,99812.16
2023-01-20T07:25:36.602Z,99807.75
2023-01-20T07:26:38.729Z,99820.05
2023-01-20T07:27:40.597Z,99808.47
2023-01-20T07:28:43.045Z,99814.38
2023-01-20T07:29:45.168Z,99811.91
2023-01-20T07:30:47.302Z,99815.38
2023-01-20T07:31:49.883Z,99822.97
2023-01-20T07:32:53.012Z,99825.60
2023-01-20T07:33:55.460Z,99820.08
2023-01-20T07:34:57.447Z,99824.20
2023-01-20T07:36:00.443Z,99832.02
2023-01-20T07:37:02.484Z,99824.91
2023-01-20T11:53:22.544Z,99875.02
2023-01-20T11:54:27.464Z,99875.45
2023-01-20T11:55:29.580Z,99873.42
2023-01-20T11:56:44.476Z,99880.05
2023-01-20T11:57:50.284Z,99887.72
2023-01-20T11:59:02.094Z,99875.24
2023-01-20T12:00:20.135Z,99875.91
2023-01-20T12:01:27.275Z,99876.70
2023-01-20T12:02:29.305Z,99871.05
2023-01-20T12:05:21.636Z,99873.73
2023-01-20T12:06:33.254Z,99873.39
2023-01-20T12:07:38.981Z,99877.48
2023-01-20T12:08:54.084Z,99881.77
2023-01-20T12:10:05.680Z,99881.77
2023-01-20T12:11:10.331Z,99882.78
2023-01-20T12:12:33.601Z,99879.87
2023-01-20T12:13:50.572Z,99880.62
2023-01-20T12:16:11.128Z,99882.55
2023-01-20T12:17:44.384Z,99884.11
2023-01-20T12:19:01.755Z,99885.82
2023-01-20T12:20:18.046Z,99884.89
2023-01-20T12:21:24.121Z,99882.24
2023-01-20T12:24:03.337Z,99886.78
2023-01-20T12:25:15.349Z,99891.59
2023-01-20T12:26:20.448Z,99886.78
2023-01-20T12:27:26.116Z,99888.50
2023-01-20T12:28:49.452Z,99888.31
2023-01-20T12:29:55.133Z,99886.42
2023-01-20T12:31:03.009Z,99887.30
2023-01-20T12:32:05.315Z,99888.89
2023-01-20T12:33:23.368Z,99886.23
2023-01-20T12:34:30.319Z,99891.35
2023-01-20T12:35:35.990Z,99888.38
2023-01-20T12:37:12.053Z,99892.05
2023-01-20T12:38:17.839Z,99876.06
2023-01-20T12:39:23.513Z,99886.38
2023-01-20T12:40:41.939Z,99883.64
2023-01-20T12:42:09.311Z,99888.09
2023-01-20T12:44:54.133Z,99888.10
2023-01-20T12:46:14.417Z,99894.05
2023-01-20T12:47:26.809Z,99908.41
2023-01-20T12:48:35.120Z,99908.41
2023-01-20T12:49:43.869Z,99902.18
2023-01-20T12:51:09.839Z,99900.47
2023-01-20T12:52:24.772Z,99904.17
2023-01-20T12:53:47.539Z,99905.19
2023-01-20T12:55:10.285Z,99896.50
2023-01-20T12:56:49.764Z,99902.70
2023-01-20T12:57:58.320Z,99896.65
2023-01-20T12:59:23.859Z,99906.10
2023-01-20T13:00:49.829Z,99908.14
2023-01-20T13:03:14.825Z,99902.97
2023-01-20T13:04:48.018Z,99904.89
2023-01-20T13:06:19.352Z,99908.58
2023-01-20T13:07:39.898Z,99916.79
2023-01-20T13:08:57.508Z,99920.45
2023-01-20T13:10:22.794Z,99919.12
2023-01-20T13:11:49.370Z,99924.67
2023-01-20T13:13:01.079Z,99921.27
2023-01-20T13:14:26.908Z,99916.16
2023-01-20T13:15:35.648Z,99921.61
2023-01-20T13:16:44.784Z,99920.83
2023-01-20T13:17:59.536Z,99926.91
2023-01-20T13:19:17.587Z,99914.69
2023-01-20T13:20:26.702Z,99917.59
2023-01-20T13:21:33.210Z,99921.96
2023-01-20T13:22:36.314Z,99911.72
2023-01-20T13:23:38.658Z,99915.04
2023-01-20T13:24:44.912Z,99919.57
2023-01-20T13:25:47.964Z,99918.90
2023-01-20T13:26:50.489Z,99925.87
2023-01-20T13:27:53.369Z,99920.75
2023-01-20T13:28:56.815Z,99913.78
2023-01-20T13:30:00.680Z,99919.33
2023-01-20T13:31:09.460Z,99914.12
2023-01-20T13:32:35.244Z,99922.14
2023-01-20T13:33:40.275Z,99922.48
2023-01-20T13:34:43.238Z,99922.48
2023-01-20T13:35:48.938Z,99919.16
2023-01-20T13:37:07.289Z,99920.09
2023-01-20T13:38:24.506Z,99919.33
2023-01-20T13:39:47.585Z,99922.81
2023-01-20T13:40:53.001Z,99919.33
2023-01-20T13:41:55.853Z,99925.71
2023-01-20T13:42:58.106Z,99922.31
2023-01-20T13:44:04.266Z,99926.84
2023-01-20T13:45:16.036Z,99927.84
2023-01-20T13:46:22.719Z,99919.23
2023-01-20T13:48:02.120Z,99925.02
2023-01-20T13:49:13.692Z,99922.79
2023-01-20T13:50:25.153Z,99922.79
2023-01-20T13:51:39.878Z,99928.95
2023-01-20T13:52:54.790Z,99921.10
2023-01-20T13:54:26.458Z,99937.12
2023-01-20T13:55:32.295Z,99930.03
2023-01-20T13:56:34.414Z,99922.71
2023-01-20T13:57:36.405Z,99922.71
2023-01-20T13:58:38.800Z,99926.36
2023-01-20T13:59:40.731Z,99931.56
2023-01-20T14:00:43.533Z,99930.88
2023-01-20T14:01:45.552Z,99931.88
2023-01-20T14:02:49.647Z,99926.68
2023-01-20T14:04:08.093Z,99931.28
2023-01-20T14:06:41.911Z,99928.23
2023-01-20T14:07:43.922Z,99928.88
2023-01-20T14:08:49.254Z,99932.60
2023-01-20T14:09:53.226Z,99935.24
2023-01-20T14:11:14.087Z,99931.76
2023-01-20T14:12:16.032Z,99930.91
2023-01-20T14:13:21.655Z,99923.91
2023-01-20T14:14:26.028Z,99939.00
2023-01-20T14:15:32.704Z,99934.80
2023-01-20T14:16:39.671Z,99938.47
2023-01-20T14:17:42.278Z,99939.47
2023-01-20T14:18:47.165Z,99942.11
2023-01-20T14:19:51.845Z,99940.39
2023-01-20T14:22:25.675Z,99936.67
2023-01-20T14:23:30.961Z,99937.27
2023-01-20T14:24:36.492Z,99936.42
2023-01-20T14:25:38.592Z,99940.30
2023-01-20T14:26:40.767Z,99947.22
2023-01-20T14:27:43.864Z,99940.30
2023-01-20T14:28:51.896Z,99943.05
2023-01-20T14:29:56.274Z,99945.03
2023-01-20T14:31:13.732Z,99945.03
2023-01-20T14:32:22.717Z,99941.63
2023-01-20T14:33:24.824Z,99933.25
2023-01-20T14:34:29.408Z,99944.34
2023-01-20T14:35:33.568Z,99940.94
2023-01-20T14:36:36.581Z,99948.94
2023-01-20T14:37:39.847Z,99939.37
2023-01-20T14:38:56.579Z,99943.81
2023-01-20T14:39:51.452Z,99943.96
2023-01-20T14:40:54.713Z,99943.96
2023-01-20T14:42:02.317Z,99943.96
2023-01-20T14:43:17.366Z,99947.67
2023-01-20T14:44:24.161Z,99940.41
2023-01-20T14:45:29.423Z,99951.11
2023-01-20T14:46:34.242Z,99942.58
2023-01-20T14:47:37.894Z,99949.69
2023-01-20T14:48:41.917Z,99948.92
2023-01-20T14:49:47.925Z,99949.08
2023-01-20T14:50:52.342Z,99955.42
2023-01-20T14:51:55.024Z,99950.14
2023-01-20T14:52:57.776Z,99952.02
2023-01-20T14:54:29.426Z,99950.39
2023-01-20T14:55:38.550Z,99953.03
2023-01-20T14:56:44.466Z,99952.30
2023-01-20T14:57:46.519Z,99961.17
2023-01-20T14:58:51.421Z,99952.45
2023-01-20T15:00:20.879Z,99964.88
2023-01-20T15:01:27.127Z,99955.56
2023-01-20T15:02:32.658Z,99960.84
2023-01-20T15:03:34.935Z,99968.83
2023-01-20T15:04:38.060Z,99966.41
2023-01-20T15:06:56.965Z,99963.48
2023-01-20T15:08:17.700Z,99962.19
2023-01-20T15:09:28.414Z,99963.28
2023-01-20T15:10:31.401Z,99967.61
2023-01-20T15:11:34.210Z,99972.11
2023-01-20T15:12:46.041Z,99973.03
2023-01-20T15:13:54.516Z,99966.06
2023-01-20T15:16:21.103Z,99972.04
2023-01-20T15:17:23.145Z,99967.27
2023-01-20T15:18:25.021Z,99968.28
2023-01-20T15:19:32.457Z,99973.77
2023-01-20T15:20:37.937Z,99968.50
2023-01-20T15:21:44.164Z,99972.89
2023-01-20T15:22:47.335Z,99964.14
2023-01-20T15:23:51.155Z,99964.14
2023-01-20T15:24:53.957Z,99966.71
2023-01-20T15:25:56.633Z,99961.51
2023-01-20T15:27:01.913Z,99962.28
2023-01-20T15:28:04.266Z,99958.94
2023-01-20T15:29:24.552Z,99958.80
2023-01-20T15:30:26.623Z,99959.82
2023-01-20T15:31:28.781Z,99955.53
2023-01-20T15:32:30.892Z,99960.88
2023-01-20T15:33:32.944Z,99951.46
2023-01-20T15:34:35.641Z,99962.81
2023-01-20T15:35:38.003Z,99950.69
2023-01-20T20:29:52.784Z,100148.75
2023-01-20T20:30:58.018Z,100151.63
2023-01-20T20:32:00.319Z,100143.85
2023-01-20T20:33:02.800Z,100160.43
2023-01-20T20:34:07.081Z,100154.28
2023-01-20T20:35:09.249Z,100159.41
2023-01-20T20:36:12.213Z,100167.25
2023-01-20T20:37:14.276Z,100163.82
2023-01-20T20:38:16.653Z,100163.82
2023-01-20T20:39:19.148Z,100166.36
2023-01-20T20:40:21.213Z,100169.76
2023-01-20T20:41:24.071Z,100162.80
2023-01-20T20:42:25.987Z,100172.48
2023-01-20T20:43:29.267Z,100172.48
2023-01-20T20:44:31.277Z,100175.14
2023-01-20T20:45:33.499Z,100174.25
2023-01-20T20:46:35.525Z,100174.28
2023-01-20T20:47:37.918Z,100175.14
2023-01-20T20:48:39.932Z,100169.05
2023-01-20T20:49:41.977Z,100181.29
2023-01-20T20:50:44.096Z,100183.88
2023-01-20T20:51:46.380Z,100179.59
2023-01-20T20:52:48.313Z,100186.63
2023-01-20T20:53:53.206Z,100188.36
2023-01-20T20:54:55.512Z,100184.89
2023-01-20T20:55:57.430Z,100183.13
2023-01-20T20:56:59.655Z,100190.20
2023-01-20T20:58:01.639Z,100185.00
2023-01-20T20:59:03.986Z,100180.62
2023-01-20T21:00:07.826Z,100186.77
2023-01-20T21:02:23.293Z,100180.52
2023-01-20T21:03:25.801Z,100185.11
2023-01-20T21:04:27.947Z,100181.67
2023-01-20T21:05:29.888Z,100189.52
2023-01-20T21:06:33.098Z,100189.42
2023-01-20T21:07:35.252Z,100189.45
2023-01-20T21:08:38.275Z,100186.91
2023-01-20T21:09:40.725Z,100190.47
2023-01-20T21:10:42.835Z,100189.63
2023-01-20T21:11:44.862Z,100184.22
2023-01-20T21:12:47.144Z,100193.94
2023-01-20T21:13:49.142Z,100182.70
2023-01-20T21:14:51.339Z,100193.26
2023-01-20T21:16:01.175Z,100190.52
2023-01-20T21:17:04.021Z,100184.46
2023-01-20T21:18:06.826Z,100190.58
2023-01-20T21:19:08.744Z,100178.45
2023-01-20T21:20:12.270Z,100188.03
2023-01-20T21:21:14.895Z,100191.49
2023-01-20T21:22:16.919Z,100190.71
2023-01-20T21:23:18.883Z,100192.55
2023-01-20T21:24:20.782Z,100196.89
2023-01-20T21:25:23.015Z,100197.77
2023-01-20T21:26:30.070Z,100197.71
2023-01-20T21:27:31.635Z,100200.45
2023-01-20T21:28:36.258Z,100200.45
2023-01-20T21:29:38.331Z,100205.63
2023-01-20T21:30:40.846Z,100203.98
2023-01-20T21:31:42.911Z,100203.08
2023-01-20T21:32:45.303Z,100206.56
2023-01-20T21:33:54.348Z,100197.97
2023-01-20T21:34:56.368Z,100198.00
2023-01-20T21:36:00.749Z,100204.05
2023-01-20T21:37:02.871Z,100204.12
2023-01-20T21:38:06.149Z,100198.08
2023-01-20T21:39:15.843Z,100200.69
2023-01-20T21:40:18.446Z,100202.39
2023-01-20T21:41:21.086Z,100198.95
2023-01-20T21:42:23.179Z,100202.52
2023-01-20T21:43:33.012Z,100199.90
2023-01-20T21:44:35.140Z,100191.30
2023-01-20T21:45:37.075Z,100205.23
2023-01-20T21:46:41.257Z,100200.88
2023-01-20T21:47:43.238Z,100203.55
2023-01-20T21:48:45.720Z,100200.06
2023-01-20T21:49:47.641Z,100202.77
2023-01-20T21:50:49.845Z,100198.33
2023-01-20T21:51:51.822Z,100207.91
2023-01-20T21:52:53.701Z,100195.62
2023-01-20T21:53:55.703Z,100191.41
2023-01-20T21:54:57.743Z,100204.47
2023-01-20T21:55:59.658Z,100205.41
2023-01-20T21:57:01.817Z,100198.39
2023-01-20T21:58:03.946Z,100193.23
2023-01-20T21:59:07.312Z,100203.63
2023-01-20T22:00:11.003Z,100195.05
2023-01-20T22:01:13.283Z,100191.59
2023-01-20T22:02:15.633Z,100202.05
2023-01-20T22:03:17.766Z,100200.34
2023-01-20T22:04:19.662Z,100202.11
2023-01-20T22:05:21.653Z,100196.79
2023-01-20T22:06:23.729Z,100207.33
2023-01-20T22:07:25.739Z,100204.78
2023-01-20T22:08:27.798Z,100198.70
2023-01-20T22:09:29.673Z,100195.27
2023-01-20T22:10:31.858Z,100201.44
2023-01-20T22:11:34.797Z,100197.98
2023-01-20T22:12:36.712Z,100193.63
2023-01-20T22:13:38.591Z,100192.84
2023-01-20T22:14:41.177Z,100195.39
2023-01-20T22:15:43.567Z,100187.46
2023-01-20T22:16:46.015Z,100199.77
2023-01-20T22:17:48.249Z,100194.55
2023-01-20T22:18:51.349Z,100195.48
2023-01-20T22:19:53.333Z,100199.89
2023-01-20T22:21:03.375Z,100202.47
2023-01-20T22:22:07.344Z,100197.30
2023-01-20T22:23:09.672Z,100204.20
2023-01-20T22:24:11.566Z,100199.98
2023-01-20T22:25:13.852Z,100194.78
2023-01-20T22:26:15.935Z,100197.36
2023-01-20T22:27:18.080Z,100199.09
2023-01-20T22:28:19.940Z,100196.58
2023-01-20T22:29:22.547Z,100195.72
2023-01-20T22:30:24.548Z,100206.99
2023-01-20T22:31:26.613Z,100207.05
2023-01-20T22:32:28.602Z,100207.88
2023-01-20T22:33:30.483Z,100207.98
2023-01-20T22:34:32.347Z,100206.23
2023-01-20T22:35:34.221Z,100205.31
2023-01-20T22:36:37.035Z,100202.70
2023-01-20T22:37:38.921Z,100205.34
2023-01-20T22:38:40.907Z,100194.92
2023-01-20T22:39:42.849Z,100202.87
2023-01-20T22:40:44.817Z,100194.22
2023-01-20T22:41:46.738Z,100199.39
2023-01-20T22:42:49.787Z,100197.74
2023-01-20T22:43:52.245Z,100201.23
2023-01-20T22:44:54.118Z,100204.72
2023-01-20T22:46:00.298Z,100203.05
2023-01-20T22:47:02.399Z,100197.80
2023-01-20T22:48:06.383Z,100200.44
2023-01-20T22:49:09.095Z,100206.54
2023-01-20T22:50:11.652Z,100198.68
2023-01-20T22:51:16.481Z,100199.64
2023-01-20T22:52:18.457Z,100193.51
2023-01-20T22:53:20.335Z,100198.76
2023-01-20T22:54:22.201Z,100202.31
2023-01-20T22:55:24.392Z,100195.30
2023-01-20T22:56:29.245Z,100193.54
2023-01-20T22:57:31.164Z,100203.13
2023-01-20T22:58:33.937Z,100202.28
2023-01-20T22:59:38.726Z,100201.34
2023-01-20T23:00:40.734Z,100190.95
2023-01-20T23:01:42.719Z,100189.28
2023-01-20T23:02:46.129Z,100198.73
2023-01-20T23:03:57.799Z,100191.16
2023-01-20T23:05:00.031Z,100199.75
2023-01-20T23:06:02.048Z,100197.22
2023-01-20T23:07:03.930Z,100198.02
2023-01-20T23:08:05.912Z,100194.64
2023-01-20T23:09:11.185Z,100196.40
2023-01-20T23:10:13.522Z,100196.37
2023-01-20T23:11:17.675Z,100193.80
2023-01-20T23:12:21.020Z,100199.06
2023-01-20T23:13:23.364Z,100199.94
2023-01-20T23:14:25.445Z,100197.38
2023-01-20T23:15:28.442Z,100203.45
2023-01-20T23:16:30.689Z,100195.65
2023-01-20T23:17:32.726Z,100197.44
2023-01-20T23:18:34.614Z,100198.23
2023-01-20T23:19:36.505Z,100196.59
2023-01-20T23:20:38.816Z,100193.18
2023-01-20T23:21:40.764Z,100192.27
2023-01-20T23:22:42.731Z,100190.57
2023-01-20T23:23:44.833Z,100190.63
2023-01-20T23:24:46.843Z,100192.30
2023-01-20T23:25:50.228Z,100185.38
2023-01-20T23:26:53.373Z,100194.08
2023-01-20T23:27:55.615Z,100197.59
2023-01-20T23:28:57.637Z,100195.81
2023-01-20T23:29:59.631Z,100197.64
2023-01-20T23:31:03.838Z,100201.03
2023-01-20T23:32:06.995Z,100192.34
2023-01-20T23:33:09.687Z,100193.28
2023-01-20T23:34:11.919Z,100193.26
2023-01-20T23:35:13.840Z,100192.41
2023-01-20T23:36:24.250Z,100191.53
2023-01-20T23:37:26.173Z,100192.34
2023-01-20T23:38:28.038Z,100196.74
2023-01-20T23:39:30.949Z,100192.34
2023-01-20T23:40:34.313Z,100191.53
2023-01-20T23:41:36.206Z,100194.13
2023-01-20T23:42:38.073Z,100197.63
